createdAt,value
2023-03-27T00:01:38.512Z,3.00
2023-03-27T00:04:07.012Z,2.97
2023-03-27T00:06:35.044Z,2.94
2023-03-27T00:09:03.952Z,2.90
2023-03-27T00:11:32.080Z,2.86
2023-03-27T00:14:00.193Z,2.81
2023-03-27T00:16:30.954Z,2.79
2023-03-27T00:18:58.934Z,2.76
2023-03-27T00:21:27.219Z,2.74
2023-03-27T00:23:56.800Z,2.71
2023-03-27T00:26:25.980Z,2.68
2023-03-27T00:28:54.954Z,2.69
2023-03-27T00:31:22.858Z,2.66
2023-03-27T00:33:52.563Z,2.63
2023-03-27T00:36:20.928Z,2.60
2023-03-27T00:38:49.471Z,2.58
2023-03-27T00:41:17.542Z,2.56
2023-03-27T00:43:45.501Z,2.54
2023-03-27T00:46:28.062Z,2.51
2023-03-27T00:48:59.168Z,2.50
2023-03-27T00:51:28.621Z,2.46
2023-03-27T00:53:58.008Z,2.43
2023-03-27T00:56:26.116Z,2.41
2023-03-27T00:58:55.749Z,2.42
2023-03-27T01:01:24.921Z,2.39
2023-03-27T01:03:54.074Z,2.36
2023-03-27T01:06:24.023Z,2.35
2023-03-27T01:08:52.177Z,2.31
2023-03-27T01:11:25.761Z,2.30
2023-03-27T01:14:06.831Z,2.28
2023-03-27T01:16:39.872Z,2.29
2023-03-27T01:19:21.586Z,2.28
2023-03-27T01:22:07.202Z,2.27
2023-03-27T01:24:43.051Z,2.25
2023-03-27T01:27:16.364Z,2.24
2023-03-27T01:29:59.089Z,2.21
2023-03-27T01:32:42.884Z,2.19
2023-03-27T01:35:38.630Z,2.18
2023-03-27T01:38:24.089Z,2.18
2023-03-27T01:40:59.116Z,2.17
2023-03-27T01:43:32.447Z,2.15
2023-03-27T01:46:03.970Z,2.13
2023-03-27T01:48:36.131Z,2.11
2023-03-27T01:51:05.859Z,2.10
2023-03-27T01:53:37.142Z,2.09
2023-03-27T01:56:08.922Z,2.07
2023-03-27T01:58:39.541Z,2.03
2023-03-27T02:01:11.042Z,1.98
2023-03-27T02:03:42.263Z,1.95
2023-03-27T02:06:12.766Z,1.93
2023-03-27T02:08:43.525Z,1.91
2023-03-27T02:11:12.724Z,1.88
2023-03-27T02:13:43.614Z,1.87
2023-03-27T02:16:15.398Z,1.85
2023-03-27T02:18:47.640Z,1.80
2023-03-27T02:21:15.666Z,1.78
2023-03-27T02:23:43.726Z,1.76
2023-03-27T02:26:14.577Z,1.73
2023-03-27T02:29:00.378Z,1.72
2023-03-27T02:31:35.101Z,1.71
2023-03-27T02:34:14.521Z,1.69
2023-03-27T02:36:51.050Z,1.67
2023-03-27T02:39:21.811Z,1.62
2023-03-27T02:41:55.544Z,1.59
2023-03-27T02:44:30.017Z,1.57
2023-03-27T02:47:02.444Z,1.56
2023-03-27T02:49:33.073Z,1.54
2023-03-27T02:52:03.952Z,1.52
2023-03-27T02:54:36.776Z,1.50
2023-03-27T02:57:10.733Z,1.48
2023-03-27T02:59:42.577Z,1.45
2023-03-27T03:02:12.676Z,1.43
2023-03-27T03:04:42.505Z,1.37
2023-03-27T03:07:11.718Z,1.38
2023-03-27T03:09:40.473Z,1.36
2023-03-27T03:12:10.175Z,1.34
2023-03-27T03:14:40.142Z,1.34
2023-03-27T03:17:07.988Z,1.34
2023-03-27T03:19:36.106Z,1.31
2023-03-27T03:22:04.039Z,1.30
2023-03-27T03:24:32.310Z,1.30
2023-03-27T03:27:00.922Z,1.27
2023-03-27T03:29:35.563Z,1.27
2023-03-27T03:32:03.522Z,1.24
2023-03-27T03:34:33.440Z,1.22
2023-03-27T03:37:01.630Z,1.21
2023-03-27T03:39:29.660Z,1.18
2023-03-27T03:41:57.664Z,1.19
2023-03-27T03:44:25.560Z,1.20
2023-03-27T03:46:54.966Z,1.18
2023-03-27T03:49:22.778Z,1.18
2023-03-27T03:52:04.231Z,1.17
2023-03-27T03:54:33.169Z,1.16
2023-03-27T03:57:01.181Z,1.11
2023-03-27T03:59:30.181Z,1.09
2023-03-27T04:02:00.662Z,1.10
2023-03-27T04:04:29.068Z,1.10
2023-03-27T04:06:58.522Z,1.09
2023-03-27T04:09:26.489Z,1.08
2023-03-27T04:11:54.445Z,1.07
2023-03-27T04:14:22.234Z,1.04
2023-03-27T04:16:50.105Z,1.03
2023-03-27T04:19:20.024Z,1.02
2023-03-27T04:21:48.783Z,1.00
2023-03-27T04:24:18.490Z,0.97
2023-03-27T04:26:48.051Z,0.94
2023-03-27T04:29:15.886Z,0.91
2023-03-27T04:31:46.775Z,0.87
2023-03-27T04:34:14.917Z,0.83
2023-03-27T04:36:44.630Z,0.78
2023-03-27T04:39:12.452Z,0.74
2023-03-27T04:41:40.752Z,0.72
2023-03-27T04:44:09.169Z,0.71
2023-03-27T04:46:37.311Z,0.69
2023-03-27T04:49:06.157Z,0.68
2023-03-27T04:51:34.065Z,0.66
2023-03-27T04:54:05.124Z,0.64
2023-03-27T04:56:33.920Z,0.62
2023-03-27T04:59:03.324Z,0.60
2023-03-27T05:01:31.555Z,0.59
2023-03-27T05:03:59.515Z,0.59
2023-03-27T05:06:27.498Z,0.56
2023-03-27T05:08:55.464Z,0.53
2023-03-27T05:11:24.662Z,0.51
2023-03-27T05:13:52.575Z,0.49
2023-03-27T05:16:20.727Z,0.46
2023-03-27T05:18:48.561Z,0.44
2023-03-27T05:21:17.030Z,0.40
2023-03-27T05:23:44.856Z,0.38
2023-03-27T05:26:13.144Z,0.33
2023-03-27T05:28:42.433Z,0.30
2023-03-27T05:31:10.933Z,0.28
2023-03-27T05:33:40.145Z,0.26
2023-03-27T05:36:08.353Z,0.22
2023-03-27T05:38:36.515Z,0.21
2023-03-27T05:41:04.447Z,0.21
2023-03-27T05:43:32.381Z,0.19
2023-03-27T05:46:01.648Z,0.18
2023-03-27T05:48:29.714Z,0.18
2023-03-27T05:50:57.911Z,0.21
2023-03-27T05:53:28.033Z,0.25
2023-03-27T05:56:02.709Z,0.31
2023-03-27T05:58:32.953Z,0.34
2023-03-27T06:01:02.678Z,0.40
2023-03-27T06:03:31.577Z,0.46
2023-03-27T06:06:00.438Z,0.58
2023-03-27T06:08:28.722Z,0.68
2023-03-27T06:10:57.664Z,0.74
2023-03-27T06:13:25.697Z,0.83
2023-03-27T06:15:57.803Z,0.91
2023-03-27T06:18:28.878Z,0.99
2023-03-27T06:20:59.294Z,1.04
2023-03-27T06:23:27.516Z,1.11
2023-03-27T06:25:56.943Z,1.17
2023-03-27T06:28:26.353Z,1.25
2023-03-27T06:30:54.641Z,1.34
2023-03-27T06:33:26.074Z,1.43
2023-03-27T06:36:00.796Z,1.48
2023-03-27T06:38:30.957Z,1.52
2023-03-27T06:40:59.790Z,1.59
2023-03-27T06:43:27.783Z,1.61
2023-03-27T06:45:56.338Z,1.58
2023-03-27T06:48:25.072Z,1.53
2023-03-27T06:50:57.136Z,1.47
2023-03-27T06:53:28.195Z,1.41
2023-03-27T06:55:58.355Z,1.36
2023-03-27T06:58:27.561Z,1.32
2023-03-27T07:00:56.178Z,1.29
2023-03-27T07:03:25.981Z,1.29
2023-03-27T07:05:54.114Z,1.28
2023-03-27T07:08:25.545Z,1.33
2023-03-27T07:11:09.806Z,1.39
2023-03-27T07:13:39.215Z,1.47
2023-03-27T07:16:07.703Z,1.54
2023-03-27T07:18:36.351Z,1.61
2023-03-27T07:21:04.696Z,1.67
2023-03-27T07:23:34.644Z,1.75
2023-03-27T07:26:03.300Z,1.84
2023-03-27T07:28:32.897Z,1.91
2023-03-27T07:31:01.087Z,1.98
2023-03-27T07:33:29.100Z,2.02
2023-03-27T07:35:59.927Z,2.06
2023-03-27T07:38:27.941Z,2.09
2023-03-27T07:40:57.733Z,2.14
2023-03-27T07:43:25.600Z,2.19
2023-03-27T07:45:53.477Z,2.24
2023-03-27T07:48:22.512Z,2.30
2023-03-27T07:50:50.473Z,2.36
2023-03-27T07:53:32.587Z,2.43
2023-03-27T07:56:06.276Z,2.53
2023-03-27T07:58:34.427Z,2.62
2023-03-27T08:01:04.766Z,2.70
2023-03-27T08:03:33.015Z,2.74
2023-03-27T08:06:02.611Z,2.83
2023-03-27T08:08:32.154Z,2.91
2023-03-27T08:11:00.758Z,3.02
2023-03-27T08:13:30.513Z,3.15
2023-03-27T08:16:05.336Z,3.35
2023-03-27T08:18:33.318Z,3.62
2023-03-27T15:26:54.106Z,12.74
2023-03-27T15:29:27.470Z,12.55
2023-03-27T15:31:57.484Z,12.45
2023-03-27T15:34:34.200Z,12.34
2023-03-27T15:37:03.830Z,12.34
2023-03-27T15:39:32.194Z,12.48
2023-03-27T15:42:12.541Z,12.73
2023-03-27T15:44:57.856Z,12.93
2023-03-27T15:47:26.893Z,12.84
2023-03-27T15:50:07.566Z,12.81
2023-03-27T15:52:35.427Z,12.92
2023-03-27T15:55:04.076Z,12.88
2023-03-27T15:57:34.648Z,12.85
2023-03-27T16:00:07.998Z,12.80
2023-03-27T16:02:36.542Z,12.80
2023-03-27T16:05:04.566Z,12.71
2023-03-27T16:07:37.147Z,12.78
2023-03-27T16:10:07.006Z,12.82
2023-03-27T16:12:50.274Z,12.79
2023-03-27T16:15:28.666Z,12.69
2023-03-27T16:17:58.451Z,12.46
2023-03-27T16:20:34.994Z,12.33
2023-03-27T16:23:04.302Z,12.17
2023-03-27T16:25:32.164Z,12.19
2023-03-27T16:39:23.162Z,12.58
2023-03-27T16:41:51.363Z,12.49
2023-03-27T16:44:19.428Z,12.29
2023-03-27T16:46:47.622Z,11.93
2023-03-27T16:49:16.968Z,11.67
2023-03-27T16:51:45.002Z,11.54
2023-03-27T16:54:13.174Z,11.38
2023-03-27T16:56:42.827Z,11.28
2023-03-27T16:59:10.998Z,11.21
2023-03-27T17:01:39.394Z,11.13
2023-03-27T17:04:07.672Z,11.04
2023-03-27T17:06:36.437Z,10.84
2023-03-27T17:09:04.965Z,10.76
2023-03-27T17:11:33.136Z,10.60
2023-03-27T17:14:02.854Z,10.49
2023-03-27T17:16:31.372Z,10.32
2023-03-27T17:18:59.514Z,10.22
2023-03-27T17:21:28.247Z,10.11
2023-03-27T17:23:58.148Z,10.05
2023-03-27T17:26:28.883Z,9.96
2023-03-27T17:28:57.490Z,9.92
2023-03-27T17:31:29.473Z,9.89
2023-03-27T17:33:58.912Z,9.80
2023-03-27T17:36:36.764Z,9.77
2023-03-27T17:39:09.727Z,9.78
2023-03-27T17:41:37.923Z,9.79
2023-03-27T17:44:07.992Z,9.76
2023-03-27T17:46:37.421Z,9.67
2023-03-27T17:49:06.171Z,9.56
2023-03-27T17:51:34.424Z,9.40
2023-03-27T17:54:02.873Z,9.25
2023-03-27T17:56:30.882Z,9.13
2023-03-27T17:59:00.131Z,9.08
2023-03-27T18:01:28.808Z,9.00
2023-03-27T18:04:00.614Z,8.96
2023-03-27T18:06:29.036Z,8.93
2023-03-27T18:08:57.156Z,8.95
2023-03-27T18:11:26.139Z,8.96
2023-03-27T18:13:54.201Z,8.93
2023-03-27T18:16:23.229Z,8.87
2023-03-27T18:18:54.879Z,8.89
2023-03-27T18:21:24.782Z,8.85
2023-03-27T18:23:53.925Z,8.78
2023-03-27T18:26:22.085Z,8.70
2023-03-27T18:28:50.113Z,8.62
2023-03-27T18:31:18.249Z,8.58
2023-03-27T18:33:46.343Z,8.52
2023-03-27T18:36:15.555Z,8.43
2023-03-27T18:38:46.306Z,8.40
2023-03-27T18:41:15.229Z,8.34
2023-03-27T18:43:43.201Z,8.26
2023-03-27T18:46:16.823Z,8.17
2023-03-27T18:48:45.597Z,8.09
2023-03-27T18:51:14.045Z,8.02
2023-03-27T18:53:42.113Z,7.94
2023-03-27T18:56:12.291Z,7.84
2023-03-27T18:58:40.089Z,7.77
2023-03-27T19:01:10.038Z,7.72
2023-03-27T19:03:39.664Z,7.67
2023-03-27T19:06:10.450Z,7.62
2023-03-27T19:08:42.147Z,7.54
2023-03-27T19:11:12.095Z,7.47
2023-03-27T19:13:40.102Z,7.42
2023-03-27T19:16:14.355Z,7.39
2023-03-27T19:18:43.122Z,7.36
2023-03-27T19:21:11.250Z,7.35
2023-03-27T19:23:39.248Z,7.33
2023-03-27T19:26:08.756Z,7.33
2023-03-27T19:28:39.948Z,7.33
2023-03-27T19:31:08.652Z,7.34
2023-03-27T19:33:37.135Z,7.34
2023-03-27T19:36:06.021Z,7.34
2023-03-27T19:38:34.125Z,7.33
2023-03-27T19:41:02.319Z,7.33
2023-03-27T19:43:30.556Z,7.32
2023-03-27T19:46:15.672Z,7.31
2023-03-27T19:48:47.590Z,7.33
2023-03-27T19:51:15.625Z,7.33
2023-03-27T19:53:43.723Z,7.32
2023-03-27T19:56:11.806Z,7.34
2023-03-27T19:58:39.984Z,7.37
2023-03-27T20:01:09.630Z,7.39
2023-03-27T20:03:40.053Z,7.40
2023-03-27T20:06:14.158Z,7.42
2023-03-27T20:08:43.457Z,7.43
2023-03-27T20:11:11.708Z,7.46
2023-03-27T20:13:52.934Z,7.45
2023-03-27T20:16:26.632Z,7.46
2023-03-27T20:19:03.470Z,7.47
2023-03-27T20:21:33.840Z,7.48
2023-03-27T20:24:02.313Z,7.48
2023-03-27T20:26:32.546Z,7.50
2023-03-27T20:29:00.576Z,7.50
2023-03-27T20:31:30.109Z,7.52
2023-03-27T20:33:58.227Z,7.53
2023-03-27T20:36:26.502Z,7.53
2023-03-27T20:38:56.476Z,7.54
2023-03-27T20:41:27.275Z,7.54
2023-03-27T20:43:55.420Z,7.57
2023-03-27T20:46:23.437Z,7.56
2023-03-27T20:48:54.805Z,7.57
2023-03-27T20:51:25.126Z,7.58
2023-03-27T20:53:55.847Z,7.58
2023-03-27T20:56:25.110Z,7.57
2023-03-27T20:58:53.416Z,7.55
2023-03-27T21:01:27.839Z,7.51
2023-03-27T21:03:58.482Z,7.52
2023-03-27T21:06:27.083Z,7.48
2023-03-27T21:08:55.114Z,7.46
2023-03-27T21:11:23.528Z,7.43
2023-03-27T21:13:51.632Z,7.42
2023-03-27T21:16:19.883Z,7.41
2023-03-27T21:18:48.060Z,7.42
2023-03-27T21:21:17.527Z,7.43
2023-03-27T21:23:47.403Z,7.46
2023-03-27T21:26:15.764Z,7.47
2023-03-27T21:28:43.812Z,7.46
2023-03-27T21:31:12.917Z,7.49
2023-03-27T21:33:41.073Z,7.50
2023-03-27T21:36:10.685Z,7.49
2023-03-27T21:38:40.391Z,7.50
2023-03-27T21:41:08.823Z,7.51
2023-03-27T21:43:36.850Z,7.52
2023-03-27T21:46:05.300Z,7.51
2023-03-27T21:48:33.348Z,7.51
2023-03-27T21:51:02.114Z,7.51
2023-03-27T21:53:30.286Z,7.51
2023-03-27T21:56:00.550Z,7.51
2023-03-27T21:58:29.322Z,7.51
2023-03-27T22:00:58.549Z,7.51
2023-03-27T22:03:27.505Z,7.50
2023-03-27T22:06:10.348Z,7.52
2023-03-27T22:08:41.128Z,7.52
2023-03-27T22:11:11.480Z,7.52
2023-03-27T22:13:40.396Z,7.53
2023-03-27T22:16:10.122Z,7.51
2023-03-27T22:18:38.406Z,7.50
2023-03-27T22:21:14.818Z,7.49
2023-03-27T22:23:42.976Z,7.48
2023-03-27T22:26:13.005Z,7.47
2023-03-27T22:28:41.034Z,7.47
2023-03-27T22:31:09.418Z,7.46
2023-03-27T22:33:37.987Z,7.46
2023-03-27T22:36:07.466Z,7.46
2023-03-27T22:38:35.914Z,7.47
2023-03-27T22:41:06.062Z,7.48
2023-03-27T22:43:35.767Z,7.49
2023-03-27T22:46:07.050Z,7.50
2023-03-27T22:48:35.918Z,7.51
2023-03-27T22:51:04.304Z,7.52
2023-03-27T22:53:32.943Z,7.53
2023-03-27T22:56:02.136Z,7.54
2023-03-27T22:58:31.486Z,7.55
2023-03-27T23:01:01.588Z,7.57
2023-03-27T23:03:29.832Z,7.59
2023-03-27T23:05:58.229Z,7.59
2023-03-27T23:08:28.526Z,7.58
2023-03-27T23:10:57.350Z,7.56
2023-03-27T23:13:25.648Z,7.54
2023-03-27T23:15:53.688Z,7.54
2023-03-27T23:18:25.421Z,7.54
2023-03-27T23:20:58.650Z,7.54
2023-03-27T23:23:28.111Z,7.58
2023-03-27T23:25:57.841Z,7.60
2023-03-27T23:28:26.556Z,7.58
2023-03-27T23:30:55.683Z,7.61
2023-03-27T23:33:25.533Z,7.59
2023-03-27T23:35:54.637Z,7.60
2023-03-27T23:38:22.690Z,7.61
2023-03-27T23:40:56.925Z,7.61
2023-03-27T23:43:25.138Z,7.64
2023-03-27T23:45:53.592Z,7.64
2023-03-27T23:48:21.999Z,7.67
2023-03-27T23:50:51.893Z,7.67
2023-03-27T23:53:20.271Z,7.70
2023-03-27T23:55:48.439Z,7.70
2023-03-27T23:58:17.638Z,7.72
